createdAt,value
2023-01-11T00:00:45.894Z,4.82
2023-01-11T00:03:24.495Z,5.03
2023-01-11T00:05:58.854Z,4.60
2023-01-11T00:08:32.071Z,4.65
2023-01-11T00:11:05.719Z,4.40
2023-01-11T00:13:38.284Z,3.33
2023-01-11T00:16:11.668Z,4.45
2023-01-11T00:18:44.534Z,6.38
2023-01-11T00:21:17.405Z,4.25
2023-01-11T00:23:50.297Z,4.55
2023-01-11T00:26:23.093Z,4.85
2023-01-11T00:28:55.721Z,4.55
2023-01-11T00:31:31.137Z,4.43
2023-01-11T00:34:03.567Z,3.35
2023-01-11T00:36:36.309Z,4.35
2023-01-11T00:39:08.812Z,4.13
2023-01-11T00:42:00.337Z,4.30
2023-01-11T00:44:51.187Z,3.53
2023-01-11T00:47:42.267Z,3.97
2023-01-11T00:50:15.356Z,4.95
2023-01-11T00:52:48.212Z,4.15
2023-01-11T00:55:20.947Z,3.50
2023-01-11T00:57:54.048Z,4.40
2023-01-11T01:00:27.095Z,3.78
2023-01-11T01:03:00.027Z,3.78
2023-01-11T01:05:33.696Z,2.90
2023-01-11T01:08:07.440Z,2.97
2023-01-11T01:10:39.980Z,3.88
2023-01-11T01:13:33.392Z,3.40
2023-01-11T01:16:06.009Z,4.10
2023-01-11T01:18:38.862Z,4.45
2023-01-11T01:21:11.433Z,3.45
2023-01-11T01:23:44.293Z,3.13
2023-01-11T01:26:16.718Z,4.50
2023-01-11T01:28:50.686Z,4.20
2023-01-11T01:31:23.217Z,4.18
2023-01-11T01:33:56.140Z,4.75
2023-01-11T01:36:28.625Z,4.30
2023-01-11T01:39:02.474Z,4.70
2023-01-11T01:41:35.260Z,5.03
2023-01-11T01:44:26.872Z,4.85
2023-01-11T01:46:59.732Z,5.05
2023-01-11T01:49:32.686Z,6.88
2023-01-11T01:52:05.144Z,7.07
2023-01-11T01:54:41.548Z,7.50
2023-01-11T01:57:19.470Z,7.80
2023-01-11T01:59:52.940Z,6.40
2023-01-11T02:02:26.540Z,6.03
2023-01-11T02:05:00.011Z,5.78
2023-01-11T02:07:34.330Z,4.90
2023-01-11T02:10:15.597Z,4.80
2023-01-11T02:12:53.093Z,4.85
2023-01-11T02:15:25.991Z,4.30
2023-01-11T02:17:58.536Z,3.13
2023-01-11T02:20:37.169Z,4.13
2023-01-11T02:23:28.374Z,2.88
2023-01-11T02:26:13.093Z,2.67
2023-01-11T02:28:51.192Z,3.65
2023-01-11T02:31:26.844Z,3.72
2023-01-11T02:34:18.329Z,4.22
2023-01-11T02:37:11.775Z,3.53
2023-01-11T02:39:49.672Z,2.40
2023-01-11T02:42:46.042Z,3.33
2023-01-11T02:45:18.522Z,3.08
2023-01-11T02:48:10.081Z,3.30
2023-01-11T02:50:49.812Z,3.63
2023-01-11T02:53:26.004Z,3.08
2023-01-11T02:55:59.749Z,3.30
2023-01-11T02:58:33.789Z,3.13
2023-01-11T03:01:07.160Z,2.90
2023-01-11T03:03:40.047Z,3.22
2023-01-11T03:06:36.004Z,2.97
2023-01-11T03:09:22.784Z,3.22
2023-01-11T03:12:13.880Z,3.30
2023-01-11T03:14:49.499Z,3.95
2023-01-11T03:17:22.013Z,3.78
2023-01-11T03:20:18.111Z,4.07
2023-01-11T03:23:08.571Z,4.78
2023-01-11T03:25:57.317Z,4.80
2023-01-11T03:28:36.109Z,3.85
2023-01-11T03:31:32.234Z,5.03
2023-01-11T03:34:14.693Z,5.07
2023-01-11T03:36:54.450Z,7.18
2023-01-11T03:39:30.316Z,6.00
2023-01-11T03:42:05.689Z,5.38
2023-01-11T03:44:44.065Z,5.25
2023-01-11T03:47:18.435Z,5.03
2023-01-11T03:49:59.421Z,4.68
2023-01-11T03:52:34.831Z,4.35
2023-01-11T03:55:09.062Z,4.55
2023-01-11T03:57:44.212Z,3.92
2023-01-11T04:00:17.228Z,3.92
2023-01-11T04:02:50.733Z,2.80
2023-01-11T04:05:23.395Z,2.70
2023-01-11T04:07:56.307Z,4.75
2023-01-11T04:10:28.830Z,3.13
2023-01-11T04:13:01.638Z,3.35
2023-01-11T04:15:35.123Z,3.10
2023-01-11T04:18:07.991Z,2.75
2023-01-11T04:20:41.197Z,2.70
2023-01-11T04:23:15.660Z,3.42
2023-01-11T04:25:48.290Z,3.10
2023-01-11T04:28:21.097Z,3.22
2023-01-11T04:30:53.907Z,2.90
2023-01-11T04:33:26.717Z,4.30
2023-01-11T04:35:59.215Z,3.38
2023-01-11T04:38:32.058Z,3.63
2023-01-11T04:41:23.793Z,2.63
2023-01-11T04:43:56.990Z,3.22
2023-01-11T04:46:29.441Z,4.35
2023-01-11T04:49:02.453Z,4.68
2023-01-11T04:51:34.955Z,4.13
2023-01-11T04:54:07.881Z,4.95
2023-01-11T04:56:40.358Z,6.32
2023-01-11T04:59:13.934Z,4.65
2023-01-11T05:01:46.435Z,5.93
2023-01-11T05:04:19.918Z,6.50
2023-01-11T05:06:52.615Z,5.97
2023-01-11T05:09:25.570Z,5.30
2023-01-11T05:11:58.100Z,6.35
2023-01-11T05:14:31.014Z,6.78
2023-01-11T05:17:03.680Z,6.65
2023-01-11T05:19:36.850Z,6.40
2023-01-11T05:22:09.942Z,6.85
2023-01-11T05:24:43.057Z,7.50
2023-01-11T05:27:15.582Z,6.32
2023-01-11T05:29:48.458Z,6.25
2023-01-11T05:32:21.136Z,7.43
2023-01-11T05:34:54.064Z,7.00
2023-01-11T05:37:26.987Z,7.35
2023-01-11T05:39:59.869Z,7.85
2023-01-11T05:42:32.502Z,6.35
2023-01-11T05:45:23.917Z,5.18
2023-01-11T05:47:56.496Z,6.70
2023-01-11T05:50:30.158Z,7.15
2023-01-11T05:53:04.162Z,6.18
2023-01-11T05:55:37.113Z,6.85
2023-01-11T05:58:09.604Z,6.25
2023-01-11T06:00:42.510Z,11.27
2023-01-11T06:03:15.166Z,7.35
2023-01-11T06:05:48.219Z,6.65
2023-01-11T06:08:21.045Z,7.82
2023-01-11T06:10:55.527Z,8.55
2023-01-11T06:13:28.093Z,11.35
2023-01-11T06:16:02.222Z,18.75
2023-01-11T06:18:36.097Z,14.45
2023-01-11T06:21:09.726Z,14.82
2023-01-11T06:23:43.685Z,26.40
2023-01-11T06:26:17.329Z,12.43
2023-01-11T06:28:50.572Z,10.63
2023-01-11T06:31:23.540Z,18.63
2023-01-11T06:33:56.249Z,11.30
2023-01-11T06:36:29.932Z,10.00
2023-01-11T06:39:02.690Z,9.43
2023-01-11T06:41:35.575Z,9.30
2023-01-11T06:44:08.808Z,7.00
2023-01-11T06:46:41.846Z,10.50
2023-01-11T06:49:14.573Z,9.82
2023-01-11T06:51:47.510Z,9.75
2023-01-11T06:54:23.363Z,8.13
2023-01-11T06:56:56.374Z,8.32
2023-01-11T06:59:29.193Z,7.53
2023-01-11T07:02:02.130Z,7.50
2023-01-11T07:04:35.311Z,7.78
2023-01-11T07:07:08.182Z,7.90
2023-01-11T07:09:40.727Z,7.65
2023-01-11T07:12:13.626Z,6.38
2023-01-11T07:14:46.654Z,8.55
2023-01-11T07:17:19.568Z,7.43
2023-01-11T07:19:52.163Z,8.70
2023-01-11T07:22:25.293Z,8.40
2023-01-11T07:24:57.910Z,10.60
2023-01-11T07:27:30.936Z,10.35
2023-01-11T07:30:03.718Z,10.10
2023-01-11T07:32:36.679Z,9.40
2023-01-11T07:35:09.455Z,9.48
2023-01-11T07:37:42.424Z,7.72
2023-01-11T07:40:16.663Z,8.38
2023-01-11T07:43:11.823Z,7.78
2023-01-11T07:45:46.950Z,7.00
2023-01-11T07:48:25.234Z,7.20
2023-01-11T07:50:58.038Z,6.95
2023-01-11T07:53:30.953Z,5.60
2023-01-11T07:56:03.500Z,6.38
2023-01-11T07:58:36.414Z,5.22
2023-01-11T08:01:08.945Z,6.05
2023-01-11T08:03:41.931Z,6.20
2023-01-11T08:06:17.485Z,7.28
2023-01-11T08:08:50.370Z,5.38
2023-01-11T08:11:41.461Z,3.97
2023-01-11T08:14:32.703Z,4.32
2023-01-11T08:17:05.751Z,4.13
2023-01-11T08:19:38.809Z,4.15
2023-01-11T08:22:11.737Z,2.97
2023-01-11T08:24:44.828Z,4.03
2023-01-11T08:27:17.360Z,2.97
2023-01-11T08:29:50.278Z,2.42
2023-01-11T08:32:22.974Z,2.85
2023-01-11T08:34:55.888Z,3.58
2023-01-11T08:37:28.570Z,3.20
2023-01-11T08:40:01.617Z,3.22
2023-01-11T08:42:34.517Z,2.70
2023-01-11T08:45:07.678Z,3.17
2023-01-11T08:47:40.466Z,2.47
2023-01-11T08:50:13.632Z,1.70
2023-01-11T08:52:46.182Z,2.63
2023-01-11T08:55:19.707Z,2.13
2023-01-11T08:57:52.306Z,2.03
2023-01-11T09:00:25.254Z,1.42
2023-01-11T09:03:00.619Z,2.22
2023-01-11T09:05:33.807Z,2.85
2023-01-11T09:08:06.942Z,2.45
2023-01-11T09:10:40.058Z,2.00
2023-01-11T09:13:13.488Z,1.88
2023-01-11T09:15:47.576Z,2.13
2023-01-11T09:18:20.271Z,1.85
2023-01-11T09:20:54.032Z,2.05
2023-01-11T09:23:26.667Z,1.25
2023-01-11T09:25:59.574Z,1.60
2023-01-11T09:28:32.098Z,2.25
2023-01-11T09:31:05.994Z,1.60
2023-01-11T09:33:41.430Z,1.33
2023-01-11T09:36:21.995Z,1.25
2023-01-11T09:38:57.690Z,1.40
2023-01-11T09:41:51.202Z,1.88
2023-01-11T09:44:27.070Z,1.52
2023-01-11T09:47:08.835Z,1.48
2023-01-11T09:49:45.033Z,1.38
2023-01-11T09:52:33.326Z,2.65
2023-01-11T09:55:06.751Z,3.78
2023-01-11T09:57:49.308Z,1.83
2023-01-11T10:00:54.455Z,2.88
2023-01-11T10:03:46.238Z,1.75
2023-01-11T10:06:39.845Z,2.70
2023-01-11T10:18:31.575Z,2.85
2023-01-11T10:18:39.013Z,2.63
2023-01-11T10:21:17.362Z,3.03
2023-01-11T10:23:53.903Z,2.63
2023-01-11T10:26:29.142Z,2.53
2023-01-11T10:29:23.163Z,2.47
2023-01-11T10:32:07.001Z,3.60
2023-01-11T10:35:06.657Z,3.50
2023-01-11T10:38:08.272Z,7.38
2023-01-11T10:41:04.878Z,3.63
2023-01-11T10:43:44.874Z,2.90
2023-01-11T10:46:18.518Z,3.92
2023-01-11T10:48:56.690Z,3.05
2023-01-11T10:51:41.289Z,2.03
2023-01-11T10:54:20.525Z,1.65
2023-01-11T10:57:02.654Z,2.03
2023-01-11T10:59:51.066Z,2.25
2023-01-11T11:02:25.487Z,1.88
2023-01-11T11:05:17.938Z,2.17
2023-01-11T11:07:50.457Z,1.75
2023-01-11T11:10:40.879Z,3.78
2023-01-11T11:13:29.051Z,2.22
2023-01-11T11:16:15.187Z,2.13
2023-01-11T11:18:49.155Z,2.75
2023-01-11T11:21:34.029Z,5.47
2023-01-11T11:24:28.176Z,3.03
2023-01-11T11:27:04.087Z,2.85
2023-01-11T11:29:43.790Z,2.05
2023-01-11T11:32:23.246Z,2.50
2023-01-11T11:34:55.851Z,2.25
2023-01-11T11:37:32.779Z,1.55
2023-01-11T11:40:06.111Z,2.42
2023-01-11T11:42:39.051Z,1.95
2023-01-11T11:45:11.469Z,2.45
2023-01-11T11:47:53.086Z,1.77
2023-01-11T11:50:43.089Z,4.07
2023-01-11T11:53:37.680Z,3.88
2023-01-11T11:56:38.098Z,5.20
2023-01-11T11:59:14.685Z,3.70
2023-01-11T12:01:48.995Z,4.00
2023-01-11T12:04:31.998Z,1.63
2023-01-11T12:07:24.278Z,2.50
2023-01-11T12:09:57.235Z,1.83
2023-01-11T12:12:32.205Z,2.20
2023-01-11T12:15:08.366Z,2.08
2023-01-11T12:17:41.303Z,4.38
2023-01-11T12:20:23.444Z,2.40
2023-01-11T12:23:10.455Z,2.50
2023-01-11T12:25:54.243Z,2.90
2023-01-11T12:28:45.474Z,2.25
2023-01-11T12:31:38.626Z,1.70
2023-01-11T12:34:17.265Z,1.98
2023-01-11T12:36:59.307Z,1.80
2023-01-11T12:39:50.230Z,2.35
2023-01-11T12:42:23.185Z,2.22
2023-01-11T12:44:58.852Z,1.63
2023-01-11T12:47:41.148Z,1.85
2023-01-11T12:50:13.758Z,2.58
2023-01-11T12:52:46.690Z,1.35
2023-01-11T12:55:31.402Z,1.70
2023-01-11T12:58:14.422Z,2.03
2023-01-11T13:00:50.244Z,2.33
2023-01-11T13:03:35.424Z,3.33
2023-01-11T13:06:14.087Z,3.80
2023-01-11T13:09:00.280Z,3.65
2023-01-11T13:11:43.750Z,3.90
2023-01-11T13:14:31.894Z,3.42
2023-01-11T13:17:10.398Z,3.42
2023-01-11T13:19:49.925Z,2.97
2023-01-11T13:22:25.017Z,3.40
2023-01-11T13:24:58.874Z,3.53
2023-01-11T13:27:32.243Z,2.78
2023-01-11T13:30:08.082Z,4.13
2023-01-11T13:32:43.296Z,4.90
2023-01-11T13:35:18.236Z,2.95
2023-01-11T13:38:06.166Z,3.28
2023-01-11T13:40:42.961Z,2.38
2023-01-11T13:43:30.862Z,4.65
2023-01-11T13:46:26.939Z,21.67
2023-01-11T13:49:15.015Z,12.60
2023-01-11T13:51:53.683Z,8.45
2023-01-11T13:54:39.678Z,10.95
2023-01-11T13:57:15.657Z,7.97
2023-01-11T13:59:53.237Z,4.07
2023-01-11T14:02:44.331Z,3.63
2023-01-11T14:05:18.818Z,2.40
2023-01-11T14:08:01.309Z,2.83
2023-01-11T14:10:37.065Z,3.08
2023-01-11T14:13:35.994Z,2.42
2023-01-11T14:16:14.122Z,2.70
2023-01-11T14:18:49.999Z,2.38
2023-01-11T14:21:25.600Z,3.08
2023-01-11T14:23:58.969Z,3.63
2023-01-11T14:26:34.471Z,3.92
2023-01-11T14:29:15.965Z,2.17
2023-01-11T14:31:54.551Z,3.22
2023-01-11T14:34:33.685Z,2.38
2023-01-11T14:37:06.177Z,2.30
2023-01-11T14:39:54.168Z,2.42
2023-01-11T14:42:32.069Z,2.10
2023-01-11T14:45:13.832Z,2.40
2023-01-11T14:47:46.355Z,3.28
2023-01-11T14:50:19.517Z,5.03
2023-01-11T14:52:53.481Z,5.32
2023-01-11T14:55:28.783Z,4.05
2023-01-11T14:58:02.979Z,8.30
2023-01-11T15:00:36.076Z,5.38
2023-01-11T15:03:09.052Z,4.57
2023-01-11T15:05:47.325Z,4.30
2023-01-11T15:08:24.749Z,8.57
2023-01-11T15:11:36.444Z,6.07
2023-01-11T15:14:27.446Z,2.95
2023-01-11T15:17:20.598Z,3.22
2023-01-11T15:19:53.630Z,3.70
2023-01-11T15:22:29.794Z,4.00
2023-01-11T15:25:07.314Z,4.20
2023-01-11T15:27:40.271Z,2.90
2023-01-11T15:30:31.385Z,2.83
2023-01-11T15:33:19.906Z,4.07
2023-01-11T15:35:58.660Z,3.92
2023-01-11T15:38:34.337Z,4.72
2023-01-11T15:41:29.447Z,3.20
2023-01-11T15:44:14.590Z,6.90
2023-01-11T15:46:56.049Z,8.07
2023-01-11T15:52:04.797Z,5.57
2023-01-11T15:54:56.390Z,5.65
2023-01-11T15:57:28.925Z,5.82
2023-01-11T16:00:22.151Z,5.95
2023-01-11T16:02:57.707Z,4.90
2023-01-11T16:05:33.875Z,5.15
2023-01-11T16:08:24.715Z,4.88
2023-01-11T16:11:04.027Z,9.52
2023-01-11T16:13:55.246Z,7.10
2023-01-11T16:16:29.895Z,6.80
2023-01-11T16:19:07.355Z,8.00
2023-01-11T16:21:41.301Z,5.03
2023-01-11T16:24:17.541Z,6.18
2023-01-11T16:26:51.422Z,6.65
2023-01-11T16:29:26.007Z,7.63
2023-01-11T16:31:58.937Z,4.50
2023-01-11T16:34:39.590Z,5.93
2023-01-11T16:37:18.344Z,5.07
2023-01-11T16:39:52.757Z,5.85
2023-01-11T16:42:26.726Z,4.35
2023-01-11T16:45:01.500Z,5.10
2023-01-11T16:47:34.780Z,4.72
2023-01-11T16:50:20.329Z,4.30
2023-01-11T16:52:54.618Z,4.88
2023-01-11T16:55:27.134Z,4.13
2023-01-11T16:58:20.273Z,4.53
2023-01-11T17:01:03.427Z,4.35
2023-01-11T17:03:55.461Z,4.20
2023-01-11T17:06:34.997Z,6.05
2023-01-11T17:09:16.292Z,5.78
2023-01-11T17:11:53.104Z,6.70
2023-01-11T17:14:44.795Z,6.10
2023-01-11T17:17:17.840Z,9.23
2023-01-11T17:19:54.972Z,5.00
2023-01-11T17:22:32.555Z,4.40
2023-01-11T17:25:07.517Z,3.92
2023-01-11T17:27:41.434Z,4.85
2023-01-11T17:30:14.608Z,5.22
2023-01-11T17:32:49.107Z,4.38
2023-01-11T17:35:27.153Z,4.80
2023-01-11T17:38:02.207Z,5.70
2023-01-11T17:40:38.198Z,5.82
2023-01-11T17:43:32.554Z,7.13
2023-01-11T17:46:06.041Z,8.25
2023-01-11T17:48:50.661Z,8.88
2023-01-11T17:51:27.740Z,12.40
2023-01-11T17:54:01.081Z,4.38
2023-01-11T17:56:38.447Z,5.30
2023-01-11T17:59:17.290Z,4.07
2023-01-11T18:02:01.065Z,5.10
2023-01-11T18:04:36.693Z,5.20
2023-01-11T18:07:15.850Z,4.60
2023-01-11T18:09:49.980Z,6.10
2023-01-11T18:12:26.421Z,12.00
2023-01-11T18:15:00.882Z,14.15
2023-01-11T18:17:35.890Z,9.77
2023-01-11T18:20:11.531Z,12.60
2023-01-11T18:22:53.692Z,8.38
2023-01-11T18:25:27.238Z,9.00
2023-01-11T18:28:12.528Z,8.95
2023-01-11T18:30:47.013Z,11.00
2023-01-11T18:33:22.888Z,9.13
2023-01-11T18:35:58.353Z,7.60
2023-01-11T18:38:32.497Z,8.68
2023-01-11T18:41:27.739Z,12.82
2023-01-11T18:44:01.412Z,9.25
2023-01-11T18:46:34.472Z,11.43
2023-01-11T18:49:08.300Z,16.15
2023-01-11T18:51:41.866Z,17.38
2023-01-11T18:54:18.366Z,17.15
2023-01-11T18:56:51.174Z,14.25
2023-01-11T18:59:24.101Z,12.45
2023-01-11T19:02:11.985Z,14.20
2023-01-11T19:04:50.179Z,9.45
2023-01-11T19:07:23.512Z,7.78
2023-01-11T19:09:56.514Z,9.95
2023-01-11T19:12:29.058Z,9.57
2023-01-11T19:15:01.943Z,11.52
2023-01-11T19:17:34.723Z,13.93
2023-01-11T19:20:09.609Z,18.38
2023-01-11T19:22:42.317Z,23.70
2023-01-11T19:25:15.197Z,28.33
2023-01-11T19:27:48.329Z,15.50
2023-01-11T19:30:21.862Z,8.75
2023-01-11T19:32:54.710Z,7.63
2023-01-11T19:35:27.530Z,8.60
2023-01-11T19:38:00.117Z,9.88
2023-01-11T19:40:33.145Z,9.75
2023-01-11T19:43:05.730Z,8.43
2023-01-11T19:45:38.749Z,8.95
2023-01-11T19:48:12.652Z,7.90
2023-01-11T19:50:46.196Z,8.63
2023-01-11T19:53:18.855Z,7.13
2023-01-11T19:55:52.371Z,7.90
2023-01-11T19:58:24.926Z,7.10
2023-01-11T20:00:58.443Z,7.45
2023-01-11T20:03:31.037Z,6.65
2023-01-11T20:06:05.278Z,10.85
2023-01-11T20:08:38.905Z,24.05
2023-01-11T20:11:13.027Z,24.33
2023-01-11T20:13:50.823Z,33.83
2023-01-11T20:16:24.550Z,51.65
2023-01-11T20:18:57.709Z,44.72
2023-01-11T20:21:32.344Z,14.02
2023-01-11T20:24:05.353Z,14.80
2023-01-11T20:26:38.309Z,20.70
2023-01-11T20:29:10.943Z,27.90
2023-01-11T20:31:44.266Z,27.40
2023-01-11T20:34:17.274Z,17.23
2023-01-11T20:36:51.532Z,20.67
2023-01-11T20:39:25.735Z,20.77
2023-01-11T20:41:58.813Z,28.95
2023-01-11T20:44:32.529Z,20.08
2023-01-11T20:47:05.362Z,26.33
2023-01-11T20:49:38.530Z,24.23
2023-01-11T20:52:11.553Z,28.42
2023-01-11T20:54:44.217Z,25.98
2023-01-11T20:57:17.076Z,22.88
2023-01-11T20:59:49.760Z,11.85
2023-01-11T21:02:22.673Z,15.48
2023-01-11T21:04:55.217Z,17.98
2023-01-11T21:07:28.070Z,21.13
2023-01-11T21:10:00.676Z,17.45
2023-01-11T21:12:33.596Z,14.73
2023-01-11T21:15:10.881Z,11.07
2023-01-11T21:17:44.200Z,10.82
2023-01-11T21:20:17.151Z,12.77
2023-01-11T21:22:50.103Z,15.60
2023-01-11T21:25:23.044Z,21.38
2023-01-11T21:27:56.126Z,10.77
2023-01-11T21:30:28.790Z,14.38
2023-01-11T21:33:01.651Z,9.50
2023-01-11T21:35:34.543Z,16.73
2023-01-11T21:38:07.493Z,38.67
2023-01-11T21:40:40.080Z,73.35
2023-01-11T21:43:15.041Z,47.33
2023-01-11T21:45:56.989Z,43.55
2023-01-11T21:48:30.322Z,42.03
2023-01-11T21:51:15.171Z,16.63
2023-01-11T21:53:49.128Z,10.70
2023-01-11T21:56:21.684Z,10.27
2023-01-11T21:58:54.638Z,8.10
2023-01-11T22:01:27.164Z,7.65
2023-01-11T22:04:00.087Z,15.32
2023-01-11T22:06:36.817Z,38.15
2023-01-11T22:09:11.006Z,32.28
2023-01-11T22:11:43.743Z,28.30
2023-01-11T22:14:16.712Z,16.27
2023-01-11T22:16:54.203Z,13.10
2023-01-11T22:19:27.137Z,11.05
2023-01-11T22:21:59.654Z,11.90
2023-01-11T22:24:32.628Z,13.23
2023-01-11T22:27:05.180Z,12.68
2023-01-11T22:29:38.148Z,11.75
2023-01-11T22:32:10.803Z,11.13
2023-01-11T22:34:43.631Z,15.77
2023-01-11T22:37:16.121Z,14.27
2023-01-11T22:39:49.260Z,11.43
2023-01-11T22:42:21.914Z,5.97
2023-01-11T22:44:55.547Z,7.53
2023-01-11T22:47:28.067Z,8.80
2023-01-11T22:50:01.121Z,8.50
2023-01-11T22:52:33.744Z,9.80
2023-01-11T22:55:07.185Z,8.70
2023-01-11T22:57:40.898Z,6.80
2023-01-11T23:00:13.979Z,7.07
2023-01-11T23:02:46.541Z,7.65
2023-01-11T23:05:19.647Z,6.82
2023-01-11T23:07:52.190Z,8.68
2023-01-11T23:10:25.203Z,8.73
2023-01-11T23:13:16.384Z,6.55
2023-01-11T23:15:53.377Z,8.82
2023-01-11T23:18:25.982Z,7.55
2023-01-11T23:21:02.662Z,5.80
2023-01-11T23:23:35.150Z,5.05
2023-01-11T23:26:08.028Z,5.13
2023-01-11T23:28:40.605Z,5.55
2023-01-11T23:31:18.182Z,5.72
2023-01-11T23:33:52.401Z,5.07
2023-01-11T23:36:28.411Z,6.78
2023-01-11T23:39:01.366Z,5.65
2023-01-11T23:41:52.598Z,8.45
2023-01-11T23:44:25.105Z,4.93
2023-01-11T23:47:16.604Z,3.60
2023-01-11T23:49:49.900Z,4.47
2023-01-11T23:52:26.087Z,4.72
2023-01-11T23:54:58.662Z,4.80
2023-01-11T23:57:31.607Z,5.03
